sensor_id;sensor_type;location;lat;lon;timestamp;pressure;altitude;pressure_sealevel;temperature;humidity
54948;BME280;41113;41.882;12.530;2023-05-09T00:01:33;101093.66;;;16.67;89.58
54948;BME280;41113;41.882;12.530;2023-05-09T00:03:59;101091.63;;;16.69;89.19
54948;BME280;41113;41.882;12.530;2023-05-09T00:06:25;101098.03;;;16.60;89.89
54948;BME280;41113;41.882;12.530;2023-05-09T00:08:54;101095.16;;;16.61;90.15
54948;BME280;41113;41.882;12.530;2023-05-09T00:11:19;101087.47;;;16.57;90.83
54948;BME280;41113;41.882;12.530;2023-05-09T00:13:49;101086.13;;;16.53;89.93
54948;BME280;41113;41.882;12.530;2023-05-09T00:16:16;101090.19;;;16.57;89.85
54948;BME280;41113;41.882;12.530;2023-05-09T00:18:42;101085.78;;;16.56;91.05
54948;BME280;41113;41.882;12.530;2023-05-09T00:21:09;101088.66;;;16.54;91.73
54948;BME280;41113;41.882;12.530;2023-05-09T00:23:38;101089.72;;;16.61;90.61
54948;BME280;41113;41.882;12.530;2023-05-09T00:26:05;101079.09;;;16.68;90.39
54948;BME280;41113;41.882;12.530;2023-05-09T00:28:31;101084.88;;;16.81;89.27
54948;BME280;41113;41.882;12.530;2023-05-09T00:30:57;101089.09;;;16.84;89.71
54948;BME280;41113;41.882;12.530;2023-05-09T00:33:23;101077.38;;;16.67;90.70
54948;BME280;41113;41.882;12.530;2023-05-09T00:35:54;101084.41;;;16.52;90.72
54948;BME280;41113;41.882;12.530;2023-05-09T00:38:22;101083.56;;;16.43;91.28
54948;BME280;41113;41.882;12.530;2023-05-09T00:40:50;101065.41;;;16.43;91.62
54948;BME280;41113;41.882;12.530;2023-05-09T00:43:16;101078.63;;;16.38;91.68
54948;BME280;41113;41.882;12.530;2023-05-09T00:45:43;101070.50;;;16.46;91.60
54948;BME280;41113;41.882;12.530;2023-05-09T00:48:09;101072.22;;;16.47;90.89
54948;BME280;41113;41.882;12.530;2023-05-09T00:50:35;101063.22;;;16.47;90.52
54948;BME280;41113;41.882;12.530;2023-05-09T00:53:02;101074.59;;;16.50;90.26
54948;BME280;41113;41.882;12.530;2023-05-09T00:55:29;101070.19;;;16.49;90.46
54948;BME280;41113;41.882;12.530;2023-05-09T00:57:55;101067.81;;;16.55;89.82
54948;BME280;41113;41.882;12.530;2023-05-09T01:00:20;101077.69;;;16.64;89.20
54948;BME280;41113;41.882;12.530;2023-05-09T01:02:49;101072.31;;;16.80;88.46
54948;BME280;41113;41.882;12.530;2023-05-09T01:05:19;101067.09;;;16.95;87.68
54948;BME280;41113;41.882;12.530;2023-05-09T01:08:16;101069.81;;;17.03;86.89
54948;BME280;41113;41.882;12.530;2023-05-09T01:10:57;101061.81;;;17.09;86.66
54948;BME280;41113;41.882;12.530;2023-05-09T01:13:45;101069.81;;;17.11;86.50
54948;BME280;41113;41.882;12.530;2023-05-09T01:16:30;101064.53;;;17.18;86.10
54948;BME280;41113;41.882;12.530;2023-05-09T01:22:01;101063.34;;;17.20;85.89
54948;BME280;41113;41.882;12.530;2023-05-09T01:24:52;101070.97;;;17.17;86.11
54948;BME280;41113;41.882;12.530;2023-05-09T01:30:02;101088.28;;;16.99;86.93
54948;BME280;41113;41.882;12.530;2023-05-09T01:32:30;101093.34;;;16.86;87.11
54948;BME280;41113;41.882;12.530;2023-05-09T01:34:59;101088.75;;;16.70;89.11
54948;BME280;41113;41.882;12.530;2023-05-09T01:37:35;101089.50;;;16.46;91.00
54948;BME280;41113;41.882;12.530;2023-05-09T01:42:51;101086.19;;;16.69;89.56
54948;BME280;41113;41.882;12.530;2023-05-09T01:45:20;101081.13;;;16.66;89.66
54948;BME280;41113;41.882;12.530;2023-05-09T01:47:50;101090.19;;;16.57;90.29
54948;BME280;41113;41.882;12.530;2023-05-09T01:50:22;101088.19;;;16.59;90.58
54948;BME280;41113;41.882;12.530;2023-05-09T01:52:51;101086.13;;;16.53;90.93
54948;BME280;41113;41.882;12.530;2023-05-09T01:55:17;101093.53;;;16.42;92.28
54948;BME280;41113;41.882;12.530;2023-05-09T01:57:44;101084.75;;;16.48;91.55
54948;BME280;41113;41.882;12.530;2023-05-09T02:00:12;101087.28;;;16.50;90.74
54948;BME280;41113;41.882;12.530;2023-05-09T02:02:40;101086.38;;;16.67;90.20
54948;BME280;41113;41.882;12.530;2023-05-09T02:05:08;101085.19;;;16.70;89.38
54948;BME280;41113;41.882;12.530;2023-05-09T02:07:35;101096.69;;;16.64;89.65
54948;BME280;41113;41.882;12.530;2023-05-09T02:10:04;101088.50;;;16.56;90.08
54948;BME280;41113;41.882;12.530;2023-05-09T02:12:31;101085.44;;;16.50;90.94
54948;BME280;41113;41.882;12.530;2023-05-09T02:14:57;101085.94;;;16.46;90.89
54948;BME280;41113;41.882;12.530;2023-05-09T02:17:22;101078.28;;;16.41;91.57
54948;BME280;41113;41.882;12.530;2023-05-09T02:19:47;101086.09;;;16.44;91.61
54948;BME280;41113;41.882;12.530;2023-05-09T02:22:13;101079.47;;;16.39;92.04
54948;BME280;41113;41.882;12.530;2023-05-09T02:24:43;101083.06;;;16.47;92.05
54948;BME280;41113;41.882;12.530;2023-05-09T02:27:10;101077.81;;;16.54;91.36
54948;BME280;41113;41.882;12.530;2023-05-09T02:29:47;101080.00;;;16.50;91.85
54948;BME280;41113;41.882;12.530;2023-05-09T02:32:16;101086.31;;;16.59;91.25
54948;BME280;41113;41.882;12.530;2023-05-09T02:34:44;101082.72;;;16.50;92.05
54948;BME280;41113;41.882;12.530;2023-05-09T02:37:13;101085.41;;;16.42;91.69
54948;BME280;41113;41.882;12.530;2023-05-09T02:39:39;101086.06;;;16.36;91.98
54948;BME280;41113;41.882;12.530;2023-05-09T02:42:09;101083.19;;;16.38;92.46
54948;BME280;41113;41.882;12.530;2023-05-09T02:44:38;101086.78;;;16.46;91.50
54948;BME280;41113;41.882;12.530;2023-05-09T02:47:04;101085.41;;;16.42;91.91
54948;BME280;41113;41.882;12.530;2023-05-09T02:49:31;101087.09;;;16.35;93.17
54948;BME280;41113;41.882;12.530;2023-05-09T02:51:57;101076.75;;;16.31;92.68
54948;BME280;41113;41.882;12.530;2023-05-09T02:54:23;101075.69;;;16.24;93.79
54948;BME280;41113;41.882;12.530;2023-05-09T02:56:49;101077.25;;;16.34;92.91
54948;BME280;41113;41.882;12.530;2023-05-09T02:59:16;101076.25;;;16.43;92.21
54948;BME280;41113;41.882;12.530;2023-05-09T03:01:41;101083.19;;;16.38;93.31
54948;BME280;41113;41.882;12.530;2023-05-09T03:04:07;101089.44;;;16.30;94.03
54948;BME280;41113;41.882;12.530;2023-05-09T03:06:32;101096.25;;;16.42;93.01
54948;BME280;41113;41.882;12.530;2023-05-09T03:08:57;101091.53;;;16.44;92.17
54948;BME280;41113;41.882;12.530;2023-05-09T03:11:23;101087.81;;;16.54;91.91
54948;BME280;41113;41.882;12.530;2023-05-09T03:13:49;101085.31;;;16.60;90.69
54948;BME280;41113;41.882;12.530;2023-05-09T03:16:16;101094.81;;;16.64;90.60
54948;BME280;41113;41.882;12.530;2023-05-09T03:18:44;101085.59;;;16.49;91.05
54948;BME280;41113;41.882;12.530;2023-05-09T03:21:11;101085.56;;;16.41;91.87
54948;BME280;41113;41.882;12.530;2023-05-09T03:23:37;101084.03;;;16.38;92.56
54948;BME280;41113;41.882;12.530;2023-05-09T03:26:03;101077.91;;;16.28;92.99
54948;BME280;41113;41.882;12.530;2023-05-09T03:28:28;101080.41;;;16.22;93.59
54948;BME280;41113;41.882;12.530;2023-05-09T03:30:55;101083.00;;;16.31;92.96
54948;BME280;41113;41.882;12.530;2023-05-09T03:33:21;101088.81;;;16.44;91.80
54948;BME280;41113;41.882;12.530;2023-05-09T03:35:46;101090.34;;;16.55;91.02
54948;BME280;41113;41.882;12.530;2023-05-09T03:38:13;101090.56;;;16.62;90.85
54948;BME280;41113;41.882;12.530;2023-05-09T03:40:39;101082.09;;;16.65;90.37
54948;BME280;41113;41.882;12.530;2023-05-09T03:43:06;101085.78;;;16.56;90.97
54948;BME280;41113;41.882;12.530;2023-05-09T03:45:32;101087.25;;;16.34;92.98
54948;BME280;41113;41.882;12.530;2023-05-09T03:47:57;101082.28;;;16.21;94.40
54948;BME280;41113;41.882;12.530;2023-05-09T03:50:23;101088.03;;;16.18;94.74
54948;BME280;41113;41.882;12.530;2023-05-09T03:52:51;101093.13;;;16.21;94.61
54948;BME280;41113;41.882;12.530;2023-05-09T03:55:16;101088.72;;;16.20;94.97
54948;BME280;41113;41.882;12.530;2023-05-09T03:57:43;101093.44;;;16.18;95.57
54948;BME280;41113;41.882;12.530;2023-05-09T04:00:11;101092.72;;;16.08;96.19
54948;BME280;41113;41.882;12.530;2023-05-09T04:02:38;101092.22;;;16.04;96.99
54948;BME280;41113;41.882;12.530;2023-05-09T04:05:05;101089.97;;;16.00;96.92
54948;BME280;41113;41.882;12.530;2023-05-09T04:07:30;101086.44;;;15.99;97.55
54948;BME280;41113;41.882;12.530;2023-05-09T04:09:56;101088.66;;;16.04;97.45
54948;BME280;41113;41.882;12.530;2023-05-09T04:12:21;101086.91;;;15.95;97.56
54948;BME280;41113;41.882;12.530;2023-05-09T04:14:47;101091.69;;;16.01;97.86
54948;BME280;41113;41.882;12.530;2023-05-09T04:17:16;101090.31;;;15.97;98.32
54948;BME280;41113;41.882;12.530;2023-05-09T04:19:41;101088.28;;;15.99;98.06
54948;BME280;41113;41.882;12.530;2023-05-09T04:22:07;101080.53;;;16.04;98.23
54948;BME280;41113;41.882;12.530;2023-05-09T04:24:32;101091.78;;;16.25;96.85
54948;BME280;41113;41.882;12.530;2023-05-09T04:26:58;101099.28;;;16.31;96.04
54948;BME280;41113;41.882;12.530;2023-05-09T04:29:23;101088.75;;;16.70;93.94
54948;BME280;41113;41.882;12.530;2023-05-09T04:31:49;101098.63;;;17.12;91.28
54948;BME280;41113;41.882;12.530;2023-05-09T04:34:14;101085.03;;;17.77;87.45
54948;BME280;41113;41.882;12.530;2023-05-09T04:36:41;101095.63;;;18.11;84.76
54948;BME280;41113;41.882;12.530;2023-05-09T04:39:08;101091.13;;;18.74;83.10
54948;BME280;41113;41.882;12.530;2023-05-09T04:41:34;101094.75;;;19.12;79.23
54948;BME280;41113;41.882;12.530;2023-05-09T04:44:00;101091.38;;;19.55;77.45
54948;BME280;41113;41.882;12.530;2023-05-09T04:46:26;101096.38;;;19.81;76.93
54948;BME280;41113;41.882;12.530;2023-05-09T04:48:53;101097.63;;;19.94;75.59
54948;BME280;41113;41.882;12.530;2023-05-09T04:51:20;101090.28;;;19.94;74.36
54948;BME280;41113;41.882;12.530;2023-05-09T04:53:45;101091.38;;;21.16;71.32
54948;BME280;41113;41.882;12.530;2023-05-09T04:56:11;101083.59;;;21.34;67.99
54948;BME280;41113;41.882;12.530;2023-05-09T04:58:37;101087.97;;;21.85;66.21
54948;BME280;41113;41.882;12.530;2023-05-09T05:01:05;101088.72;;;22.82;63.82
54948;BME280;41113;41.882;12.530;2023-05-09T05:03:34;101090.75;;;22.74;64.31
54948;BME280;41113;41.882;12.530;2023-05-09T05:06:03;101096.69;;;22.29;64.41
54948;BME280;41113;41.882;12.530;2023-05-09T05:08:30;101095.56;;;22.72;63.44
54948;BME280;41113;41.882;12.530;2023-05-09T05:10:56;101093.44;;;23.48;60.03
54948;BME280;41113;41.882;12.530;2023-05-09T05:13:21;101097.59;;;23.04;61.70
54948;BME280;41113;41.882;12.530;2023-05-09T05:15:48;101097.59;;;22.97;61.35
54948;BME280;41113;41.882;12.530;2023-05-09T05:18:14;101095.13;;;23.75;61.69
54948;BME280;41113;41.882;12.530;2023-05-09T05:20:41;101095.88;;;24.29;60.07
54948;BME280;41113;41.882;12.530;2023-05-09T05:23:08;101094.03;;;23.37;60.21
54948;BME280;41113;41.882;12.530;2023-05-09T05:25:33;101101.03;;;23.46;59.79
54948;BME280;41113;41.882;12.530;2023-05-09T05:28:00;101094.03;;;22.08;62.20
54948;BME280;41113;41.882;12.530;2023-05-09T05:30:25;101101.03;;;21.89;62.46
54948;BME280;41113;41.882;12.530;2023-05-09T05:32:51;101098.31;;;21.89;63.17
54948;BME280;41113;41.882;12.530;2023-05-09T05:35:16;101086.06;;;23.42;61.03
54948;BME280;41113;41.882;12.530;2023-05-09T06:35:49;101081.84;;;26.56;50.00
54948;BME280;41113;41.882;12.530;2023-05-09T06:38:17;101080.19;;;27.15;48.40
54948;BME280;41113;41.882;12.530;2023-05-09T06:40:44;101084.97;;;27.08;48.43
54948;BME280;41113;41.882;12.530;2023-05-09T06:43:12;101082.56;;;27.76;46.83
54948;BME280;41113;41.882;12.530;2023-05-09T06:45:44;101077.09;;;26.08;49.90
54948;BME280;41113;41.882;12.530;2023-05-09T06:48:10;101078.63;;;24.98;53.84
54948;BME280;41113;41.882;12.530;2023-05-09T06:50:38;101078.06;;;24.51;54.71
54948;BME280;41113;41.882;12.530;2023-05-09T06:53:08;101082.47;;;23.61;55.92
54948;BME280;41113;41.882;12.530;2023-05-09T06:55:34;101090.25;;;23.11;57.71
54948;BME280;41113;41.882;12.530;2023-05-09T06:58:20;101092.53;;;23.01;57.69
54948;BME280;41113;41.882;12.530;2023-05-09T07:00:46;101092.09;;;22.84;58.36
54948;BME280;41113;41.882;12.530;2023-05-09T07:03:30;101094.88;;;23.11;57.46
54948;BME280;41113;41.882;12.530;2023-05-09T07:05:58;101095.47;;;22.93;58.01
54948;BME280;41113;41.882;12.530;2023-05-09T07:08:24;101093.00;;;23.24;56.77
54948;BME280;41113;41.882;12.530;2023-05-09T07:10:50;101092.09;;;22.91;57.33
54948;BME280;41113;41.882;12.530;2023-05-09T07:13:16;101081.16;;;23.04;57.26
54948;BME280;41113;41.882;12.530;2023-05-09T07:15:42;101085.63;;;23.32;56.31
54948;BME280;41113;41.882;12.530;2023-05-09T07:18:08;101089.41;;;23.11;56.67
54948;BME280;41113;41.882;12.530;2023-05-09T07:20:37;101086.03;;;23.28;56.61
54948;BME280;41113;41.882;12.530;2023-05-09T07:23:03;101097.63;;;23.24;56.93
54948;BME280;41113;41.882;12.530;2023-05-09T07:25:31;101082.97;;;22.77;58.33
54948;BME280;41113;41.882;12.530;2023-05-09T07:27:59;101077.19;;;23.26;57.21
54948;BME280;41113;41.882;12.530;2023-05-09T07:30:25;101081.16;;;22.97;57.58
54948;BME280;41113;41.882;12.530;2023-05-09T07:32:51;101074.03;;;23.16;57.10
54948;BME280;41113;41.882;12.530;2023-05-09T07:35:18;101078.03;;;23.73;55.75
54948;BME280;41113;41.882;12.530;2023-05-09T07:37:45;101071.84;;;24.04;54.89
54948;BME280;41113;41.882;12.530;2023-05-09T07:40:11;101074.38;;;24.06;54.70
54948;BME280;41113;41.882;12.530;2023-05-09T07:42:40;101070.88;;;23.46;55.80
54948;BME280;41113;41.882;12.530;2023-05-09T07:45:09;101074.06;;;23.56;55.86
54948;BME280;41113;41.882;12.530;2023-05-09T07:47:37;101058.63;;;23.68;55.47
54948;BME280;41113;41.882;12.530;2023-05-09T07:50:03;101062.66;;;23.46;55.95
54948;BME280;41113;41.882;12.530;2023-05-09T07:52:30;101064.97;;;23.62;55.41
54948;BME280;41113;41.882;12.530;2023-05-09T07:55:10;101069.41;;;23.76;54.31
54948;BME280;41113;41.882;12.530;2023-05-09T07:57:37;101074.47;;;23.79;54.86
54948;BME280;41113;41.882;12.530;2023-05-09T08:00:05;101066.19;;;23.93;54.44
54948;BME280;41113;41.882;12.530;2023-05-09T08:02:34;101067.28;;;23.78;55.41
54948;BME280;41113;41.882;12.530;2023-05-09T08:05:00;101066.66;;;23.56;55.96
54948;BME280;41113;41.882;12.530;2023-05-09T08:07:26;101072.78;;;23.78;55.92
54948;BME280;41113;41.882;12.530;2023-05-09T08:09:51;101064.31;;;23.86;55.37
54948;BME280;41113;41.882;12.530;2023-05-09T08:12:18;101066.38;;;24.11;54.61
54948;BME280;41113;41.882;12.530;2023-05-09T08:14:44;101067.59;;;24.21;54.16
54948;BME280;41113;41.882;12.530;2023-05-09T08:17:10;101064.63;;;24.23;53.61
54948;BME280;41113;41.882;12.530;2023-05-09T08:19:35;101073.28;;;24.20;53.70
54948;BME280;41113;41.882;12.530;2023-05-09T08:22:02;101061.19;;;24.47;52.81
54948;BME280;41113;41.882;12.530;2023-05-09T08:24:28;101068.25;;;24.68;52.48
54948;BME280;41113;41.882;12.530;2023-05-09T08:26:53;101070.34;;;24.73;52.20
54948;BME280;41113;41.882;12.530;2023-05-09T08:29:19;101070.81;;;24.63;52.41
54948;BME280;41113;41.882;12.530;2023-05-09T08:31:50;101077.06;;;24.32;52.26
54948;BME280;41113;41.882;12.530;2023-05-09T08:34:15;101077.28;;;24.24;53.33
54948;BME280;41113;41.882;12.530;2023-05-09T08:36:41;101070.72;;;24.32;52.36
54948;BME280;41113;41.882;12.530;2023-05-09T08:39:09;101068.44;;;24.22;52.64
54948;BME280;41113;41.882;12.530;2023-05-09T08:41:36;101066.72;;;24.34;52.87
54948;BME280;41113;41.882;12.530;2023-05-09T08:44:07;101062.88;;;24.48;52.07
54948;BME280;41113;41.882;12.530;2023-05-09T08:46:36;101066.38;;;24.11;50.46
54948;BME280;41113;41.882;12.530;2023-05-09T08:49:05;101061.44;;;24.26;51.04
54948;BME280;41113;41.882;12.530;2023-05-09T08:51:34;101057.84;;;24.26;52.11
54948;BME280;41113;41.882;12.530;2023-05-09T08:54:00;101062.25;;;24.46;52.05
54948;BME280;41113;41.882;12.530;2023-05-09T08:56:42;101060.44;;;24.72;50.82
54948;BME280;41113;41.882;12.530;2023-05-09T08:59:09;101062.78;;;24.62;51.88
54948;BME280;41113;41.882;12.530;2023-05-09T09:01:34;101063.59;;;24.69;51.76
54948;BME280;41113;41.882;12.530;2023-05-09T09:04:02;101058.88;;;24.82;51.36
54948;BME280;41113;41.882;12.530;2023-05-09T09:06:29;101054.78;;;24.98;49.28
54948;BME280;41113;41.882;12.530;2023-05-09T09:08:57;101053.25;;;25.02;50.69
54948;BME280;41113;41.882;12.530;2023-05-09T09:11:23;101053.34;;;24.89;51.07
54948;BME280;41113;41.882;12.530;2023-05-09T09:13:50;101055.16;;;24.64;50.03
54948;BME280;41113;41.882;12.530;2023-05-09T09:16:19;101046.91;;;24.19;50.71
54948;BME280;41113;41.882;12.530;2023-05-09T09:18:45;101043.56;;;24.04;49.73
54948;BME280;41113;41.882;12.530;2023-05-09T09:21:11;101049.91;;;24.11;50.02
54948;BME280;41113;41.882;12.530;2023-05-09T09:23:40;101044.84;;;24.08;49.59
54948;BME280;41113;41.882;12.530;2023-05-09T09:26:07;101041.75;;;23.84;49.05
54948;BME280;41113;41.882;12.530;2023-05-09T09:28:33;101035.13;;;23.99;49.24
54948;BME280;41113;41.882;12.530;2023-05-09T09:30:59;101033.78;;;24.34;49.11
54948;BME280;41113;41.882;12.530;2023-05-09T09:33:26;101036.59;;;24.59;48.30
54948;BME280;41113;41.882;12.530;2023-05-09T09:35:54;101030.22;;;24.72;48.37
54948;BME280;41113;41.882;12.530;2023-05-09T09:38:21;101034.00;;;24.71;48.49
54948;BME280;41113;41.882;12.530;2023-05-09T09:40:53;101024.66;;;24.78;47.41
54948;BME280;41113;41.882;12.530;2023-05-09T09:43:19;101022.41;;;25.00;47.96
54948;BME280;41113;41.882;12.530;2023-05-09T09:45:49;101023.72;;;24.91;46.76
54948;BME280;41113;41.882;12.530;2023-05-09T09:48:17;101020.25;;;24.77;47.68
54948;BME280;41113;41.882;12.530;2023-05-09T09:50:42;101015.75;;;24.83;48.21
54948;BME280;41113;41.882;12.530;2023-05-09T09:53:07;101017.44;;;24.84;47.85
54948;BME280;41113;41.882;12.530;2023-05-09T09:55:33;101018.84;;;24.93;47.45
54948;BME280;41113;41.882;12.530;2023-05-09T09:57:59;101010.72;;;25.11;47.14
54948;BME280;41113;41.882;12.530;2023-05-09T10:00:25;101003.25;;;25.19;46.75
54948;BME280;41113;41.882;12.530;2023-05-09T10:02:57;100998.66;;;25.37;46.43
54948;BME280;41113;41.882;12.530;2023-05-09T10:05:29;100998.53;;;25.26;45.58
54948;BME280;41113;41.882;12.530;2023-05-09T10:08:00;101001.56;;;25.18;45.68
54948;BME280;41113;41.882;12.530;2023-05-09T10:10:27;100997.88;;;25.05;45.50
54948;BME280;41113;41.882;12.530;2023-05-09T10:12:56;101002.19;;;24.88;43.28
54948;BME280;41113;41.882;12.530;2023-05-09T10:15:22;101013.03;;;24.45;40.50
54948;BME280;41113;41.882;12.530;2023-05-09T10:17:53;101013.63;;;24.54;44.05
54948;BME280;41113;41.882;12.530;2023-05-09T10:20:20;101004.44;;;24.73;43.75
54948;BME280;41113;41.882;12.530;2023-05-09T10:22:47;100999.50;;;24.81;43.79
54948;BME280;41113;41.882;12.530;2023-05-09T10:25:16;100989.00;;;24.97;42.98
54948;BME280;41113;41.882;12.530;2023-05-09T10:27:45;100993.94;;;25.20;43.45
54948;BME280;41113;41.882;12.530;2023-05-09T10:30:18;100996.47;;;25.21;41.68
54948;BME280;41113;41.882;12.530;2023-05-09T10:35:26;100991.03;;;25.15;42.95
54948;BME280;41113;41.882;12.530;2023-05-09T10:37:54;100981.88;;;25.21;42.42
54948;BME280;41113;41.882;12.530;2023-05-09T10:40:21;100982.50;;;25.23;42.04
54948;BME280;41113;41.882;12.530;2023-05-09T10:42:46;100979.19;;;25.14;38.82
54948;BME280;41113;41.882;12.530;2023-05-09T10:45:12;100975.56;;;24.89;41.50
54948;BME280;41113;41.882;12.530;2023-05-09T10:47:42;100975.41;;;24.52;39.24
54948;BME280;41113;41.882;12.530;2023-05-09T10:50:10;100967.81;;;24.47;41.60
54948;BME280;41113;41.882;12.530;2023-05-09T11:00:52;100961.94;;;24.37;42.03
54948;BME280;41113;41.882;12.530;2023-05-09T11:03:17;100961.78;;;24.64;42.24
54948;BME280;41113;41.882;12.530;2023-05-09T11:05:45;100960.56;;;24.60;41.33
54948;BME280;41113;41.882;12.530;2023-05-09T11:10:50;100958.59;;;24.98;41.59
54948;BME280;41113;41.882;12.530;2023-05-09T11:13:20;100953.47;;;25.02;41.30
54948;BME280;41113;41.882;12.530;2023-05-09T11:16:03;100945.75;;;25.17;40.53
54948;BME280;41113;41.882;12.530;2023-05-09T11:18:30;100936.38;;;25.25;41.21
54948;BME280;41113;41.882;12.530;2023-05-09T11:21:06;100937.22;;;25.25;41.55
54948;BME280;41113;41.882;12.530;2023-05-09T11:23:32;100924.47;;;25.31;42.14
54948;BME280;41113;41.882;12.530;2023-05-09T11:26:06;100924.00;;;25.34;41.96
54948;BME280;41113;41.882;12.530;2023-05-09T11:28:34;100931.28;;;25.47;42.37
54948;BME280;41113;41.882;12.530;2023-05-09T11:31:14;100921.88;;;25.54;41.55
54948;BME280;41113;41.882;12.530;2023-05-09T11:33:41;100918.22;;;25.60;42.28
54948;BME280;41113;41.882;12.530;2023-05-09T11:36:17;100910.81;;;25.61;40.70
54948;BME280;41113;41.882;12.530;2023-05-09T11:38:46;100916.00;;;25.69;42.17
54948;BME280;41113;41.882;12.530;2023-05-09T11:41:12;100917.94;;;25.68;41.88
54948;BME280;41113;41.882;12.530;2023-05-09T11:43:38;100908.50;;;25.58;41.68
54948;BME280;41113;41.882;12.530;2023-05-09T11:46:04;100905.06;;;25.62;41.80
54948;BME280;41113;41.882;12.530;2023-05-09T11:48:30;100907.56;;;25.70;41.78
54948;BME280;41113;41.882;12.530;2023-05-09T11:50:55;100903.56;;;25.85;41.38
54948;BME280;41113;41.882;12.530;2023-05-09T11:53:21;100901.69;;;25.97;41.42
54948;BME280;41113;41.882;12.530;2023-05-09T11:55:47;100911.34;;;26.06;40.95
54948;BME280;41113;41.882;12.530;2023-05-09T11:58:12;100904.63;;;26.02;40.04
54948;BME280;41113;41.882;12.530;2023-05-09T12:00:44;100905.81;;;26.06;40.65
54948;BME280;41113;41.882;12.530;2023-05-09T12:03:10;100898.91;;;26.15;40.79
54948;BME280;41113;41.882;12.530;2023-05-09T12:05:36;100907.19;;;26.27;40.48
54948;BME280;41113;41.882;12.530;2023-05-09T12:08:07;100902.88;;;26.38;40.77
54948;BME280;41113;41.882;12.530;2023-05-09T12:10:36;100898.56;;;26.42;39.14
54948;BME280;41113;41.882;12.530;2023-05-09T12:13:02;100902.47;;;26.34;41.04
54948;BME280;41113;41.882;12.530;2023-05-09T12:15:28;100898.31;;;26.13;42.94
54948;BME280;41113;41.882;12.530;2023-05-09T12:18:01;100899.41;;;25.94;45.08
54948;BME280;41113;41.882;12.530;2023-05-09T12:20:27;100905.25;;;25.86;44.88
54948;BME280;41113;41.882;12.530;2023-05-09T12:23:03;100895.25;;;25.73;45.42
54948;BME280;41113;41.882;12.530;2023-05-09T12:25:28;100901.72;;;25.60;46.14
54948;BME280;41113;41.882;12.530;2023-05-09T12:27:53;100905.63;;;25.53;46.59
54948;BME280;41113;41.882;12.530;2023-05-09T12:30:21;100911.19;;;25.46;46.99
54948;BME280;41113;41.882;12.530;2023-05-09T12:32:46;100895.00;;;25.38;47.21
54948;BME280;41113;41.882;12.530;2023-05-09T12:35:12;100898.25;;;25.28;47.51
54948;BME280;41113;41.882;12.530;2023-05-09T12:37:37;100897.03;;;25.24;47.89
54948;BME280;41113;41.882;12.530;2023-05-09T12:40:09;100890.09;;;25.22;47.87
54948;BME280;41113;41.882;12.530;2023-05-09T12:42:43;100892.84;;;25.22;47.85
54948;BME280;41113;41.882;12.530;2023-05-09T12:45:10;100884.91;;;25.32;47.34
54948;BME280;41113;41.882;12.530;2023-05-09T12:47:36;100884.91;;;25.32;47.28
54948;BME280;41113;41.882;12.530;2023-05-09T12:50:08;100886.72;;;25.20;47.82
54948;BME280;41113;41.882;12.530;2023-05-09T12:52:37;100887.50;;;25.08;47.66
54948;BME280;41113;41.882;12.530;2023-05-09T12:55:10;100888.38;;;25.02;47.92
54948;BME280;41113;41.882;12.530;2023-05-09T12:57:36;100879.16;;;24.90;48.01
54948;BME280;41113;41.882;12.530;2023-05-09T13:00:04;100884.41;;;24.73;47.99
54948;BME280;41113;41.882;12.530;2023-05-09T13:02:37;100881.69;;;24.67;48.05
54948;BME280;41113;41.882;12.530;2023-05-09T13:05:18;100889.47;;;24.70;47.59
54948;BME280;41113;41.882;12.530;2023-05-09T13:07:46;100877.25;;;24.66;47.97
54948;BME280;41113;41.882;12.530;2023-05-09T13:10:12;100888.41;;;24.71;47.78
54948;BME280;41113;41.882;12.530;2023-05-09T13:12:38;100877.38;;;24.77;47.55
54948;BME280;41113;41.882;12.530;2023-05-09T13:15:05;100876.25;;;24.85;47.39
54948;BME280;41113;41.882;12.530;2023-05-09T13:17:31;100874.06;;;24.94;47.02
54948;BME280;41113;41.882;12.530;2023-05-09T13:19:56;100869.41;;;24.94;46.67
54948;BME280;41113;41.882;12.530;2023-05-09T13:22:21;100870.31;;;24.88;46.87
54948;BME280;41113;41.882;12.530;2023-05-09T13:24:47;100865.44;;;24.90;46.68
54948;BME280;41113;41.882;12.530;2023-05-09T13:27:12;100863.91;;;24.94;46.63
54948;BME280;41113;41.882;12.530;2023-05-09T13:29:37;100860.09;;;24.95;46.65
54948;BME280;41113;41.882;12.530;2023-05-09T13:32:03;100866.44;;;24.96;46.61
54948;BME280;41113;41.882;12.530;2023-05-09T13:34:28;100861.53;;;25.04;46.47
54948;BME280;41113;41.882;12.530;2023-05-09T13:36:54;100865.97;;;25.05;46.13
54948;BME280;41113;41.882;12.530;2023-05-09T13:39:19;100863.41;;;25.04;45.62
54948;BME280;41113;41.882;12.530;2023-05-09T13:41:44;100866.38;;;25.02;46.14
54948;BME280;41113;41.882;12.530;2023-05-09T13:44:10;100862.00;;;24.95;45.71
54948;BME280;41113;41.882;12.530;2023-05-09T13:46:35;100865.34;;;24.97;46.17
54948;BME280;41113;41.882;12.530;2023-05-09T13:49:01;100857.94;;;24.97;45.83
54948;BME280;41113;41.882;12.530;2023-05-09T13:51:26;100853.53;;;24.96;45.83
54948;BME280;41113;41.882;12.530;2023-05-09T13:53:53;100854.31;;;25.03;45.69
54948;BME280;41113;41.882;12.530;2023-05-09T13:56:18;100846.06;;;25.03;45.62
54948;BME280;41113;41.882;12.530;2023-05-09T13:58:44;100850.47;;;25.11;45.64
54948;BME280;41113;41.882;12.530;2023-05-09T14:01:09;100851.75;;;25.08;44.97
54948;BME280;41113;41.882;12.530;2023-05-09T14:03:35;100849.47;;;25.05;45.20